Portada
METAR-TAF:

METAR-TAF

Aeropuertos :

Aeropuerto Internacional de Taskent

Taskent, Uzbekistán

latitud: 41-16N, longitud: 069-16E, altitud: 489 m

Observación

El informe se hizo hace 32 minutos, a las 03:30 UTC
Viento 4 kt del este-noreste
Temperatura 14°C
Humedad 44%
Presión 1021 hPa
Visibilidad 10 km o más
sin nubes por debajo de 1500 m y sin presencia de cumulonimbus.

METAR: UTTT 220330Z 06004KT CAVOK 14/02 Q1021 R26R/CLRD70 NOSIG

Hora: 09:02 (04:02 UTC)

Pronóstico

El informe se hizo hace 5 horas y 2 minutos, a las 23:00 UTC
Pronóstico válido del 22 a las 00 UTC al 22 a las 24 UTC
Viento 8 kt del este
Visibilidad: 7000 m
Temporalmente
del 22 a las 07 UTC al 22 a las 15 UTC
Viento 12 kt del noroeste

TAF: UTTT 212300Z 2200/2224 08008KT 7000 NSC TEMPO 2207/2215 32012KT

Observaciones y pronósticos meteorológicos de más de 4000 aeropuertos (mensajes METAR y TAF).

Los puntos amarillos y rojos representan las estaciones disponibles.

Ponga el ratón en el punto deseado para ver el nombre de la estación.

Haga clic para ver las observaciones y los pronósticos meteorológicos.

Para cambiar el mapa : haga clic en los botones verdes con una cruz de color negro para hacer un zoom, en el botón verde con un guión para alejar o en las flechas verdes para mapas adyacentes.


METAR-TAF: